createdAt,value
2023-05-14T00:00:36.443Z,23.33
2023-05-14T00:03:03.554Z,23.23
2023-05-14T00:05:30.302Z,27.13
2023-05-14T00:07:57.012Z,25.73
2023-05-14T00:10:23.857Z,26.13
2023-05-14T00:12:51.771Z,22.70
2023-05-14T00:15:18.820Z,22.73
2023-05-14T00:17:45.620Z,26.23
2023-05-14T00:20:12.566Z,24.45
2023-05-14T00:22:40.140Z,24.10
2023-05-14T00:25:08.009Z,25.63
2023-05-14T00:30:01.564Z,22.90
2023-05-14T00:32:28.226Z,22.38
2023-05-14T00:34:54.945Z,24.83
2023-05-14T00:37:21.689Z,23.02
2023-05-14T00:39:48.802Z,26.67
2023-05-14T00:42:15.597Z,24.67
2023-05-14T00:44:42.308Z,28.02
2023-05-14T00:47:09.309Z,24.55
2023-05-14T00:49:36.243Z,27.40
2023-05-14T00:52:03.792Z,28.55
2023-05-14T00:54:30.689Z,25.65
2023-05-14T00:56:58.258Z,25.38
2023-05-14T00:59:25.921Z,27.92
2023-05-14T01:01:52.890Z,25.40
2023-05-14T01:04:19.866Z,24.97
2023-05-14T01:07:17.114Z,27.10
2023-05-14T01:09:46.730Z,26.30
2023-05-14T01:12:22.596Z,26.90
2023-05-14T01:15:02.476Z,29.63
2023-05-14T01:17:33.180Z,24.98
2023-05-14T01:20:00.642Z,32.38
2023-05-14T01:22:27.335Z,25.00
2023-05-14T01:24:54.073Z,23.85
2023-05-14T01:27:42.976Z,28.48
2023-05-14T01:30:28.175Z,29.45
2023-05-14T01:32:58.216Z,28.65
2023-05-14T01:35:29.065Z,29.20
2023-05-14T01:37:57.661Z,27.23
2023-05-14T01:40:25.483Z,27.17
2023-05-14T01:42:53.234Z,31.77
2023-05-14T01:45:24.118Z,30.63
2023-05-14T01:47:51.664Z,27.48
2023-05-14T01:50:18.700Z,30.67
2023-05-14T01:52:45.614Z,29.05
2023-05-14T01:55:12.350Z,30.85
2023-05-14T01:57:39.022Z,29.55
2023-05-14T02:00:06.996Z,25.98
2023-05-14T02:02:41.039Z,27.73
2023-05-14T02:05:11.506Z,29.65
2023-05-14T02:07:38.293Z,27.15
2023-05-14T02:10:05.696Z,26.58
2023-05-14T02:12:32.527Z,34.67
2023-05-14T02:17:27.880Z,29.60
2023-05-14T02:19:54.673Z,29.73
2023-05-14T02:22:21.416Z,29.83
2023-05-14T02:24:49.738Z,30.15
2023-05-14T02:27:22.692Z,31.70
2023-05-14T02:29:49.383Z,29.00
2023-05-14T02:32:16.144Z,27.95
2023-05-14T02:34:42.817Z,30.83
2023-05-14T02:37:09.551Z,29.20
2023-05-14T02:39:37.062Z,29.90
2023-05-14T02:42:03.879Z,30.52
2023-05-14T02:44:31.850Z,30.08
2023-05-14T02:46:58.645Z,32.47
2023-05-14T02:49:25.444Z,32.22
2023-05-14T02:51:54.267Z,36.75
2023-05-14T02:54:21.031Z,42.97
2023-05-14T02:56:47.882Z,44.42
2023-05-14T02:59:14.642Z,45.90
2023-05-14T03:01:41.939Z,41.03
2023-05-14T03:04:09.200Z,36.33
2023-05-14T03:06:35.861Z,34.03
2023-05-14T03:09:02.739Z,31.65
2023-05-14T03:11:29.555Z,32.70
2023-05-14T03:13:56.277Z,35.38
2023-05-14T03:16:23.007Z,33.78
2023-05-14T03:18:49.767Z,33.60
2023-05-14T03:21:16.605Z,34.55
2023-05-14T03:23:43.231Z,33.90
2023-05-14T03:26:10.324Z,33.77
2023-05-14T03:28:37.059Z,33.28
2023-05-14T03:31:03.877Z,32.53
2023-05-14T03:33:31.204Z,39.75
2023-05-14T03:35:57.990Z,34.78
2023-05-14T03:38:24.697Z,31.50
2023-05-14T03:40:51.380Z,40.80
2023-05-14T03:43:18.175Z,42.03
2023-05-14T03:45:44.913Z,34.13
2023-05-14T03:48:11.667Z,37.20
2023-05-14T03:50:38.785Z,34.33
2023-05-14T03:53:06.524Z,31.50
2023-05-14T03:55:33.173Z,35.95
2023-05-14T03:57:59.921Z,32.92
2023-05-14T04:00:27.398Z,37.10
2023-05-14T04:02:54.389Z,33.20
2023-05-14T04:05:23.544Z,36.90
2023-05-14T04:07:50.244Z,33.45
2023-05-14T04:10:16.967Z,35.30
2023-05-14T04:12:43.692Z,33.95
2023-05-14T04:15:10.989Z,29.02
2023-05-14T04:17:37.739Z,34.92
2023-05-14T04:20:04.983Z,37.58
2023-05-14T04:22:32.215Z,37.40
2023-05-14T04:24:58.970Z,33.88
2023-05-14T04:27:25.801Z,33.25
2023-05-14T04:29:52.494Z,33.70
2023-05-14T04:32:19.115Z,32.50
2023-05-14T04:34:46.949Z,29.40
2023-05-14T04:39:40.689Z,34.40
2023-05-14T04:42:07.887Z,32.92
2023-05-14T04:44:36.197Z,32.35
2023-05-14T04:47:02.920Z,31.08
2023-05-14T04:49:30.438Z,32.90
2023-05-14T04:51:57.195Z,32.25
2023-05-14T04:54:24.098Z,33.55
2023-05-14T04:56:51.210Z,31.53
2023-05-14T04:59:18.036Z,33.23
2023-05-14T05:01:45.873Z,34.70
2023-05-14T05:06:39.755Z,34.90
2023-05-14T05:09:06.394Z,37.90
2023-05-14T05:11:33.037Z,34.15
2023-05-14T05:13:59.743Z,36.30
2023-05-14T05:16:26.447Z,34.95
2023-05-14T05:18:53.212Z,40.03
2023-05-14T05:21:20.146Z,37.10
2023-05-14T05:23:46.848Z,40.53
2023-05-14T05:26:13.544Z,36.03
2023-05-14T05:28:40.363Z,34.58
2023-05-14T05:31:07.205Z,35.17
2023-05-14T05:33:35.068Z,36.70
2023-05-14T05:36:01.860Z,33.95
2023-05-14T05:38:28.561Z,30.92
2023-05-14T05:40:55.459Z,33.65
2023-05-14T05:43:22.185Z,30.88
2023-05-14T05:45:48.764Z,37.65
2023-05-14T05:48:15.525Z,34.35
2023-05-14T05:50:44.310Z,34.90
2023-05-14T05:53:10.971Z,29.17
2023-05-14T05:55:37.735Z,28.55
2023-05-14T05:58:04.631Z,29.55
2023-05-14T06:00:31.504Z,26.98
2023-05-14T06:02:58.185Z,30.67
2023-05-14T06:05:24.958Z,33.17
2023-05-14T06:07:53.463Z,23.67
2023-05-14T06:10:20.171Z,29.83
2023-05-14T06:12:46.860Z,29.15
2023-05-14T06:15:13.556Z,24.75
2023-05-14T06:17:40.345Z,24.75
2023-05-14T06:20:08.027Z,25.90
2023-05-14T06:22:34.996Z,23.60
2023-05-14T06:25:01.833Z,28.93
2023-05-14T06:27:28.634Z,24.25
2023-05-14T06:29:55.599Z,23.35
2023-05-14T06:32:22.357Z,22.75
2023-05-14T06:34:49.078Z,23.67
2023-05-14T06:37:15.717Z,28.13
2023-05-14T06:39:50.241Z,22.92
2023-05-14T06:42:17.925Z,21.52
2023-05-14T06:44:45.350Z,22.65
2023-05-14T06:47:12.124Z,31.35
2023-05-14T06:49:39.339Z,25.60
2023-05-14T06:52:06.453Z,22.73
2023-05-14T06:54:33.271Z,23.83
2023-05-14T06:56:59.922Z,21.42
2023-05-14T06:59:26.590Z,22.58
2023-05-14T07:01:53.327Z,23.45
2023-05-14T07:04:20.079Z,20.83
2023-05-14T07:06:46.871Z,21.80
2023-05-14T07:09:13.573Z,23.73
2023-05-14T07:11:40.275Z,18.80
2023-05-14T07:14:06.958Z,18.42
2023-05-14T07:16:33.694Z,20.45
2023-05-14T07:19:00.453Z,22.67
2023-05-14T07:21:27.965Z,22.17
2023-05-14T07:23:54.673Z,17.45
2023-05-14T07:26:21.535Z,16.13
2023-05-14T07:28:48.170Z,17.80
2023-05-14T07:31:14.870Z,17.98
2023-05-14T07:33:41.588Z,19.85
2023-05-14T07:36:08.919Z,18.27
2023-05-14T07:38:35.801Z,19.25
2023-05-14T07:41:02.873Z,19.80
2023-05-14T07:43:29.569Z,15.68
2023-05-14T07:45:56.585Z,18.25
2023-05-14T07:48:23.392Z,15.45
2023-05-14T07:50:50.176Z,17.98
2023-05-14T07:53:16.879Z,18.45
2023-05-14T07:55:45.033Z,15.65
2023-05-14T07:58:11.740Z,18.83
2023-05-14T08:00:38.442Z,21.17
2023-05-14T08:03:05.235Z,22.98
2023-05-14T08:05:33.010Z,18.67
2023-05-14T08:10:27.018Z,21.85
2023-05-14T08:12:53.939Z,21.98
2023-05-14T08:15:21.061Z,22.50
2023-05-14T08:17:47.724Z,22.27
2023-05-14T08:20:14.552Z,23.23
2023-05-14T08:22:41.396Z,21.30
2023-05-14T08:25:08.297Z,23.40
2023-05-14T08:27:35.073Z,23.77
2023-05-14T08:30:01.743Z,22.20
2023-05-14T08:32:28.525Z,22.27
2023-05-14T08:34:55.300Z,18.92
2023-05-14T08:37:21.980Z,23.55
2023-05-14T08:39:49.047Z,20.42
2023-05-14T08:42:18.552Z,21.83
2023-05-14T08:44:50.241Z,27.08
2023-05-14T08:47:21.460Z,26.65
2023-05-14T08:49:54.918Z,25.98
2023-05-14T08:52:22.845Z,23.63
2023-05-14T08:54:51.306Z,23.17
2023-05-14T08:57:18.905Z,28.27
2023-05-14T08:59:45.608Z,25.60
2023-05-14T09:02:15.086Z,27.38
2023-05-14T09:04:42.978Z,25.42
2023-05-14T09:09:36.716Z,23.48
2023-05-14T09:12:03.676Z,24.38
2023-05-14T09:14:30.376Z,29.87
2023-05-14T09:16:57.198Z,23.48
2023-05-14T09:19:24.279Z,24.48
2023-05-14T09:21:51.120Z,26.58
2023-05-14T09:24:25.982Z,25.88
2023-05-14T09:26:54.354Z,25.27
2023-05-14T09:29:21.094Z,22.60
2023-05-14T09:31:51.612Z,24.52
2023-05-14T09:34:28.723Z,24.58
2023-05-14T09:37:04.213Z,22.45
2023-05-14T09:39:31.906Z,23.92
2023-05-14T09:41:59.059Z,23.65
2023-05-14T09:44:26.176Z,21.58
2023-05-14T09:46:53.864Z,23.90
2023-05-14T09:49:21.084Z,21.80
2023-05-14T09:51:49.578Z,23.50
2023-05-14T09:54:16.909Z,17.50
2023-05-14T09:56:44.212Z,20.80
2023-05-14T09:59:11.085Z,21.38
2023-05-14T10:01:38.013Z,21.60
2023-05-14T10:04:07.683Z,21.60
2023-05-14T10:06:38.194Z,24.25
2023-05-14T10:09:09.973Z,18.88
2023-05-14T10:11:38.787Z,19.40
2023-05-14T10:14:18.015Z,21.42
2023-05-14T10:16:50.503Z,22.55
2023-05-14T10:19:20.142Z,22.02
2023-05-14T10:21:57.271Z,17.73
2023-05-14T10:24:25.012Z,19.67
2023-05-14T10:29:18.480Z,16.67
2023-05-14T10:31:55.912Z,19.05
2023-05-14T10:34:34.693Z,16.20
2023-05-14T10:37:02.865Z,16.70
2023-05-14T10:40:02.053Z,17.48
2023-05-14T10:42:35.373Z,21.77
2023-05-14T10:45:18.183Z,17.95
2023-05-14T10:47:47.026Z,15.65
2023-05-14T10:50:17.569Z,18.10
2023-05-14T10:52:46.172Z,14.65
2023-05-14T10:55:14.900Z,20.05
2023-05-14T10:57:44.101Z,18.98
2023-05-14T11:00:12.799Z,15.88
2023-05-14T11:02:44.404Z,22.25
2023-05-14T11:05:14.370Z,16.50
2023-05-14T11:07:45.807Z,18.20
2023-05-14T11:10:14.817Z,15.73
2023-05-14T11:12:46.844Z,16.60
2023-05-14T11:15:16.814Z,15.50
2023-05-14T11:17:45.223Z,19.58
2023-05-14T11:20:12.783Z,14.70
2023-05-14T11:22:41.287Z,13.70
2023-05-14T11:25:09.100Z,18.48
2023-05-14T11:30:04.092Z,19.95
2023-05-14T11:32:35.067Z,21.00
2023-05-14T11:35:01.756Z,16.13
2023-05-14T11:37:30.661Z,15.65
2023-05-14T11:40:00.684Z,13.38
2023-05-14T11:42:27.463Z,14.32
2023-05-14T11:44:54.181Z,13.85
2023-05-14T11:47:21.749Z,17.73
2023-05-14T11:49:49.189Z,13.30
2023-05-14T11:52:19.414Z,13.73
2023-05-14T11:54:46.841Z,12.90
2023-05-14T11:57:19.961Z,16.60
2023-05-14T11:59:49.069Z,14.77
2023-05-14T12:02:18.001Z,12.50
2023-05-14T12:04:49.549Z,17.63
2023-05-14T12:07:16.989Z,15.80
2023-05-14T12:09:51.730Z,17.75
2023-05-14T12:12:22.714Z,14.27
2023-05-14T12:14:50.630Z,21.85
2023-05-14T12:17:23.870Z,14.90
2023-05-14T12:19:52.135Z,13.90
2023-05-14T12:22:21.162Z,18.42
2023-05-14T12:24:58.010Z,15.18
2023-05-14T12:27:26.748Z,11.75
2023-05-14T12:30:12.848Z,11.65
2023-05-14T12:32:46.555Z,10.35
2023-05-14T12:35:13.232Z,12.02
2023-05-14T12:37:40.061Z,13.63
2023-05-14T12:40:09.488Z,14.98
2023-05-14T12:42:36.652Z,11.15
2023-05-14T12:45:07.188Z,16.08
2023-05-14T12:47:34.175Z,15.68
2023-05-14T12:50:00.876Z,15.50
2023-05-14T12:52:37.406Z,14.83
2023-05-14T12:55:06.820Z,11.98
2023-05-14T12:57:35.284Z,14.27
2023-05-14T13:00:06.196Z,11.02
2023-05-14T13:02:32.892Z,11.85
2023-05-14T13:05:02.671Z,9.50
2023-05-14T13:07:30.371Z,11.18
2023-05-14T13:09:57.379Z,14.40
2023-05-14T13:12:24.370Z,10.25
2023-05-14T13:14:51.001Z,9.25
2023-05-14T13:17:17.772Z,12.40
2023-05-14T13:19:44.449Z,10.23
2023-05-14T13:22:11.165Z,8.27
2023-05-14T13:24:37.943Z,7.97
2023-05-14T13:27:04.767Z,13.40
2023-05-14T13:29:31.738Z,8.02
2023-05-14T13:31:58.524Z,7.25
2023-05-14T13:34:25.386Z,7.30
2023-05-14T13:36:52.192Z,8.25
2023-05-14T13:39:22.694Z,6.35
2023-05-14T13:41:50.744Z,9.20
2023-05-14T13:44:17.402Z,8.27
2023-05-14T13:46:44.226Z,9.63
2023-05-14T13:49:11.148Z,6.57
2023-05-14T13:51:37.776Z,9.82
2023-05-14T13:54:04.535Z,13.77
2023-05-14T13:56:31.240Z,5.83
2023-05-14T13:58:57.984Z,6.43
2023-05-14T14:01:24.699Z,5.03
2023-05-14T14:03:51.386Z,7.17
2023-05-14T14:06:18.099Z,11.73
2023-05-14T14:08:44.828Z,7.47
2023-05-14T14:11:12.948Z,9.18
2023-05-14T14:13:40.228Z,7.40
2023-05-14T14:16:07.148Z,10.77
2023-05-14T14:18:33.926Z,9.38
2023-05-14T14:21:00.766Z,8.10
2023-05-14T14:23:27.446Z,9.60
2023-05-14T14:25:54.176Z,6.90
2023-05-14T14:28:20.834Z,5.67
2023-05-14T14:30:47.650Z,11.80
2023-05-14T14:33:14.498Z,7.57
2023-05-14T14:35:41.226Z,6.95
2023-05-14T14:38:07.885Z,10.00
2023-05-14T14:40:34.834Z,7.53
2023-05-14T14:43:02.263Z,7.50
2023-05-14T14:45:29.137Z,6.88
2023-05-14T14:48:26.325Z,5.45
2023-05-14T14:50:54.705Z,6.63
2023-05-14T14:53:22.222Z,10.07
2023-05-14T14:55:49.903Z,8.02
2023-05-14T14:58:18.104Z,7.78
2023-05-14T15:00:45.606Z,5.68
2023-05-14T15:03:12.515Z,6.65
2023-05-14T15:05:39.336Z,10.25
2023-05-14T15:08:06.198Z,11.10
2023-05-14T15:10:33.166Z,5.70
2023-05-14T15:13:00.052Z,6.97
2023-05-14T15:15:26.750Z,7.80
2023-05-14T15:17:53.440Z,5.45
2023-05-14T15:20:20.182Z,4.97
2023-05-14T15:22:46.943Z,11.73
2023-05-14T15:25:13.600Z,12.52
2023-05-14T15:27:40.433Z,15.27
2023-05-14T15:30:07.791Z,16.88
2023-05-14T15:32:34.613Z,12.23
2023-05-14T15:35:01.421Z,15.37
2023-05-14T15:37:28.300Z,19.48
2023-05-14T15:39:55.018Z,17.00
2023-05-14T15:42:21.707Z,18.73
2023-05-14T15:44:48.305Z,16.25
2023-05-14T15:47:15.153Z,17.23
2023-05-14T15:49:41.945Z,13.77
2023-05-14T15:52:08.563Z,20.43
2023-05-14T15:54:35.345Z,13.90
2023-05-14T15:57:02.062Z,12.18
2023-05-14T15:59:28.748Z,17.63
2023-05-14T16:01:55.854Z,18.07
2023-05-14T16:04:22.583Z,16.73
2023-05-14T16:06:49.340Z,17.23
2023-05-14T16:09:16.027Z,18.57
2023-05-14T16:11:42.672Z,17.23
2023-05-14T16:14:09.431Z,15.48
2023-05-14T16:16:36.848Z,16.67
2023-05-14T16:19:03.585Z,19.27
2023-05-14T16:21:30.456Z,15.27
2023-05-14T16:23:57.235Z,19.30
2023-05-14T16:26:23.897Z,17.13
2023-05-14T16:28:50.638Z,15.15
2023-05-14T16:31:17.548Z,12.80
2023-05-14T16:33:44.215Z,18.03
2023-05-14T16:36:11.099Z,14.65
2023-05-14T16:38:41.566Z,17.10
2023-05-14T16:41:14.946Z,14.52
2023-05-14T16:43:41.659Z,16.27
2023-05-14T16:46:08.552Z,19.40
2023-05-14T16:48:35.243Z,22.67
2023-05-14T16:51:01.984Z,18.48
2023-05-14T16:53:28.643Z,22.30
2023-05-14T16:55:55.473Z,16.08
2023-05-14T16:58:22.175Z,20.92
2023-05-14T17:00:48.883Z,17.40
2023-05-14T17:03:15.640Z,17.88
2023-05-14T17:05:42.837Z,18.13
2023-05-14T17:08:09.552Z,15.50
2023-05-14T17:10:36.340Z,16.70
2023-05-14T17:13:03.276Z,18.92
2023-05-14T17:15:30.077Z,14.80
2023-05-14T17:17:56.811Z,17.77
2023-05-14T17:20:23.570Z,19.65
2023-05-14T17:22:50.950Z,14.80
2023-05-14T17:25:17.773Z,19.17
2023-05-14T17:27:44.530Z,19.97
2023-05-14T17:30:11.566Z,17.45
2023-05-14T17:32:38.340Z,16.92
2023-05-14T17:35:05.722Z,15.80
2023-05-14T17:37:32.422Z,21.48
2023-05-14T17:39:59.204Z,16.00
2023-05-14T17:42:25.896Z,12.75
2023-05-14T17:44:53.520Z,17.75
2023-05-14T17:47:20.903Z,18.15
2023-05-14T17:49:47.863Z,16.77
2023-05-14T17:52:14.564Z,16.07
2023-05-14T17:54:41.238Z,15.57
2023-05-14T17:57:08.271Z,15.45
2023-05-14T17:59:35.083Z,17.57
2023-05-14T18:02:01.800Z,15.48
2023-05-14T18:04:28.503Z,18.98
2023-05-14T18:06:55.273Z,14.10
2023-05-14T18:09:22.028Z,13.93
2023-05-14T18:11:48.676Z,11.85
2023-05-14T18:14:15.534Z,12.57
2023-05-14T18:16:42.209Z,12.68
2023-05-14T18:19:09.150Z,14.10
2023-05-14T18:21:36.035Z,17.47
2023-05-14T18:24:02.753Z,13.32
2023-05-14T18:26:30.183Z,17.67
2023-05-14T18:28:58.238Z,13.75
2023-05-14T18:31:27.426Z,10.48
2023-05-14T18:33:54.389Z,15.93
2023-05-14T18:36:21.222Z,11.93
2023-05-14T18:38:47.904Z,13.35
2023-05-14T18:41:14.557Z,14.55
2023-05-14T18:43:41.524Z,14.07
2023-05-14T18:46:08.479Z,11.23
2023-05-14T18:48:35.230Z,12.20
2023-05-14T18:51:01.914Z,16.33
2023-05-14T18:53:29.327Z,12.70
2023-05-14T18:55:56.205Z,9.73
2023-05-14T18:58:23.009Z,12.40
2023-05-14T19:00:49.640Z,12.55
2023-05-14T19:03:16.440Z,15.68
2023-05-14T19:05:43.224Z,14.25
2023-05-14T19:08:09.923Z,16.40
2023-05-14T19:10:36.608Z,13.95
2023-05-14T19:13:03.574Z,18.55
2023-05-14T19:15:30.542Z,14.07
2023-05-14T19:17:57.343Z,14.93
2023-05-14T19:20:24.321Z,12.63
2023-05-14T19:22:51.054Z,13.48
2023-05-14T19:25:17.782Z,12.82
2023-05-14T19:27:45.525Z,15.18
2023-05-14T19:30:12.998Z,13.95
2023-05-14T19:32:39.674Z,12.82
2023-05-14T19:35:06.598Z,14.07
2023-05-14T19:37:33.410Z,13.43
2023-05-14T19:40:00.279Z,16.10
2023-05-14T19:42:26.935Z,15.80
2023-05-14T19:44:54.288Z,10.10
2023-05-14T19:47:21.064Z,15.00
2023-05-14T19:49:47.745Z,16.08
2023-05-14T19:52:14.390Z,12.50
2023-05-14T19:54:41.074Z,9.85
2023-05-14T19:57:07.757Z,13.68
2023-05-14T19:59:34.821Z,15.98
2023-05-14T20:02:02.235Z,14.95
2023-05-14T20:04:28.920Z,15.13
2023-05-14T20:06:56.862Z,11.95
2023-05-14T20:11:50.402Z,12.82
2023-05-14T20:14:17.055Z,15.00
2023-05-14T20:16:43.830Z,13.65
2023-05-14T20:19:11.050Z,15.48
2023-05-14T20:21:37.779Z,14.77
2023-05-14T20:24:04.650Z,16.83
2023-05-14T20:26:31.345Z,12.85
2023-05-14T20:28:58.058Z,14.95
2023-05-14T20:31:24.761Z,15.27
2023-05-14T20:33:51.421Z,17.25
2023-05-14T20:36:18.482Z,16.85
2023-05-14T20:38:45.219Z,16.23
2023-05-14T20:41:12.112Z,17.30
2023-05-14T20:43:38.749Z,18.90
2023-05-14T20:46:07.212Z,19.20
2023-05-14T20:48:33.934Z,15.00
2023-05-14T20:51:01.700Z,21.90
2023-05-14T20:53:28.766Z,22.45
2023-05-14T20:55:55.506Z,16.67
2023-05-14T20:58:22.249Z,19.33
2023-05-14T21:00:48.906Z,19.50
2023-05-14T21:03:15.885Z,23.92
2023-05-14T21:05:43.789Z,17.33
2023-05-14T21:10:37.728Z,22.02
2023-05-14T21:13:04.456Z,19.48
2023-05-14T21:15:31.259Z,19.20
2023-05-14T21:17:58.110Z,18.10
2023-05-14T21:20:24.880Z,17.58
2023-05-14T21:22:51.544Z,24.33
2023-05-14T21:25:18.439Z,18.58
2023-05-14T21:27:45.083Z,22.75
2023-05-14T21:30:12.499Z,19.85
2023-05-14T21:32:39.305Z,25.35
2023-05-14T21:35:06.258Z,19.92
2023-05-14T21:37:33.260Z,23.27
2023-05-14T21:40:00.044Z,28.80
2023-05-14T21:42:26.711Z,24.30
2023-05-14T21:44:53.351Z,25.00
2023-05-14T21:47:21.106Z,26.40
2023-05-14T21:49:47.722Z,20.33
2023-05-14T21:52:14.522Z,29.55
2023-05-14T21:54:41.164Z,28.15
2023-05-14T21:57:07.824Z,26.83
2023-05-14T21:59:35.477Z,26.35
2023-05-14T22:04:31.908Z,28.15
2023-05-14T22:06:58.623Z,26.15
2023-05-14T22:09:25.798Z,30.15
2023-05-14T22:11:52.445Z,31.13
2023-05-14T22:14:19.103Z,27.42
2023-05-14T22:16:45.795Z,29.98
2023-05-14T22:19:12.747Z,29.67
2023-05-14T22:21:39.441Z,33.00
2023-05-14T22:24:06.394Z,30.95
2023-05-14T22:26:33.477Z,29.25
2023-05-14T22:29:00.127Z,27.63
2023-05-14T22:31:26.954Z,29.50
2023-05-14T22:33:53.737Z,31.63
2023-05-14T22:36:20.540Z,28.33
2023-05-14T22:38:47.389Z,31.48
2023-05-14T22:41:14.122Z,27.08
2023-05-14T22:43:40.858Z,28.00
2023-05-14T22:46:07.581Z,30.48
2023-05-14T22:48:34.291Z,30.73
2023-05-14T22:51:00.999Z,34.78
2023-05-14T22:53:27.711Z,28.70
2023-05-14T22:55:54.427Z,30.95
2023-05-14T22:58:21.088Z,29.00
2023-05-14T23:00:47.980Z,30.85
2023-05-14T23:03:14.637Z,30.33
2023-05-14T23:05:41.411Z,31.05
2023-05-14T23:08:08.129Z,25.88
2023-05-14T23:10:35.583Z,29.67
2023-05-14T23:13:02.348Z,31.33
2023-05-14T23:15:29.141Z,31.05
2023-05-14T23:17:55.982Z,32.25
2023-05-14T23:20:22.726Z,32.47
2023-05-14T23:22:49.580Z,25.10
2023-05-14T23:25:16.227Z,28.65
2023-05-14T23:27:42.911Z,31.67
2023-05-14T23:30:10.225Z,28.83
2023-05-14T23:32:36.983Z,29.38
2023-05-14T23:35:03.989Z,28.73
2023-05-14T23:37:30.749Z,32.83
2023-05-14T23:39:57.382Z,27.85
2023-05-14T23:42:24.777Z,32.80
2023-05-14T23:44:51.468Z,30.67
2023-05-14T23:47:18.147Z,34.92
2023-05-14T23:49:44.945Z,33.35
2023-05-14T23:52:11.620Z,34.60
2023-05-14T23:54:38.912Z,35.40
2023-05-14T23:57:05.818Z,33.83
2023-05-14T23:59:32.512Z,35.25
